createdAt,value
2024-03-12T04:02:57.815Z,7.22
2024-03-12T04:05:26.267Z,4.47
2024-03-12T04:07:55.352Z,5.87
2024-03-12T04:10:23.538Z,6.57
2024-03-12T04:12:52.261Z,6.65
2024-03-12T04:15:20.273Z,6.25
2024-03-12T04:17:48.235Z,5.57
2024-03-12T04:20:18.741Z,5.75
2024-03-12T04:22:47.153Z,6.90
2024-03-12T04:25:16.664Z,6.13
2024-03-12T04:27:44.763Z,6.28
2024-03-12T04:30:14.694Z,6.00
2024-03-12T04:32:42.715Z,6.43
2024-03-12T04:35:13.509Z,6.15
2024-03-12T04:37:43.287Z,6.25
2024-03-12T04:40:12.581Z,11.13
2024-03-12T04:42:41.097Z,7.22
2024-03-12T04:45:10.123Z,8.25
2024-03-12T04:47:42.068Z,6.80
2024-03-12T04:50:13.022Z,7.00
2024-03-12T04:52:42.546Z,6.57
2024-03-12T04:55:10.805Z,7.13
2024-03-12T04:57:38.754Z,7.30
2024-03-12T05:00:14.930Z,5.93
2024-03-12T05:02:43.686Z,6.82
2024-03-12T05:05:14.806Z,6.65
2024-03-12T05:07:44.277Z,6.05
2024-03-12T05:10:12.864Z,6.35
2024-03-12T05:12:41.670Z,7.20
2024-03-12T05:15:10.235Z,7.50
2024-03-12T05:17:38.375Z,7.18
2024-03-12T05:20:10.489Z,6.90
2024-03-12T05:22:38.672Z,8.00
2024-03-12T05:25:10.894Z,5.72
2024-03-12T05:27:39.912Z,8.95
2024-03-12T05:30:15.638Z,6.63
2024-03-12T05:32:48.522Z,7.03
2024-03-12T05:35:21.552Z,7.18
2024-03-12T05:38:09.018Z,6.80
2024-03-12T05:40:58.350Z,8.52
2024-03-12T05:43:43.983Z,6.75
2024-03-12T05:46:29.706Z,7.90
2024-03-12T05:48:57.818Z,8.40
2024-03-12T05:51:25.821Z,7.60
2024-03-12T05:53:53.732Z,8.43
2024-03-12T05:56:22.945Z,6.38
2024-03-12T05:58:51.707Z,7.40
2024-03-12T06:01:19.898Z,5.93
2024-03-12T06:03:47.990Z,5.80
2024-03-12T06:06:15.885Z,8.02
2024-03-12T06:08:45.963Z,7.53
2024-03-12T06:11:14.303Z,8.18
2024-03-12T06:13:44.920Z,8.88
2024-03-12T06:16:13.138Z,8.43
2024-03-12T06:18:41.281Z,7.05
2024-03-12T06:21:09.210Z,7.32
2024-03-12T06:23:38.192Z,8.75
2024-03-12T06:26:07.453Z,8.73
2024-03-12T06:28:36.853Z,7.90
2024-03-12T06:31:06.363Z,7.30
2024-03-12T06:33:34.634Z,7.40
2024-03-12T06:36:03.320Z,7.22
2024-03-12T06:38:31.237Z,7.55
2024-03-12T06:40:59.158Z,9.35
2024-03-12T06:43:27.189Z,18.88
2024-03-12T06:45:55.123Z,13.38
2024-03-12T06:48:24.359Z,11.27
2024-03-12T06:50:52.617Z,10.10
2024-03-12T06:53:21.176Z,13.13
2024-03-12T06:55:49.112Z,13.10
2024-03-12T06:58:20.372Z,14.63
2024-03-12T07:00:49.457Z,13.45
2024-03-12T07:03:19.805Z,13.68
2024-03-12T07:05:49.869Z,12.20
2024-03-12T07:08:19.105Z,8.88
2024-03-12T07:10:47.538Z,7.03
2024-03-12T07:13:16.015Z,7.00
2024-03-12T07:15:46.189Z,8.02
2024-03-12T07:18:15.533Z,7.30
2024-03-12T07:20:45.304Z,9.63
2024-03-12T07:23:15.599Z,7.70
2024-03-12T07:25:44.460Z,7.22
2024-03-12T07:28:14.107Z,6.15
2024-03-12T07:30:42.373Z,7.78
2024-03-12T07:33:10.966Z,9.38
2024-03-12T07:35:38.974Z,9.18
2024-03-12T07:38:07.509Z,6.43
2024-03-12T07:40:39.128Z,7.00
2024-03-12T07:43:07.266Z,8.18
2024-03-12T07:45:37.192Z,8.20
2024-03-12T07:48:06.983Z,9.05
2024-03-12T07:50:35.943Z,7.78
2024-03-12T07:53:06.778Z,7.45
2024-03-12T07:55:36.786Z,7.18
2024-03-12T07:58:06.188Z,7.38
2024-03-12T08:00:34.795Z,8.40
2024-03-12T08:03:02.795Z,9.10
2024-03-12T08:05:34.067Z,7.82
2024-03-12T08:08:06.014Z,8.10
2024-03-12T08:10:34.253Z,7.50
2024-03-12T08:13:06.416Z,8.57
2024-03-12T08:15:34.506Z,7.57
2024-03-12T08:18:12.744Z,8.63
2024-03-12T08:20:47.298Z,7.03
2024-03-12T08:23:15.681Z,7.18
2024-03-12T08:25:54.908Z,6.78
2024-03-12T08:28:26.269Z,6.95
2024-03-12T08:30:56.601Z,6.60
2024-03-12T08:33:27.864Z,6.63
2024-03-12T08:35:56.002Z,8.32
2024-03-12T08:38:24.846Z,8.63
2024-03-12T08:40:53.767Z,8.25
2024-03-12T08:43:21.880Z,6.30
2024-03-12T08:45:51.216Z,6.75
2024-03-12T08:48:19.550Z,7.35
2024-03-12T08:50:47.853Z,8.10
2024-03-12T08:53:16.552Z,7.53
2024-03-12T08:55:44.765Z,8.13
2024-03-12T08:58:12.960Z,8.35
2024-03-12T09:00:42.413Z,6.78
2024-03-12T09:03:11.805Z,6.30
2024-03-12T09:05:41.563Z,7.43
2024-03-12T09:08:10.505Z,8.50
2024-03-12T09:10:38.884Z,7.63
2024-03-12T09:13:08.445Z,8.00
2024-03-12T09:15:37.177Z,7.47
2024-03-12T09:18:07.602Z,8.77
2024-03-12T09:20:37.783Z,8.68
2024-03-12T09:23:06.553Z,9.00
2024-03-12T09:25:34.838Z,10.35
2024-03-12T09:28:05.966Z,9.80
2024-03-12T09:30:35.289Z,9.55
2024-03-12T09:33:03.341Z,13.68
2024-03-12T09:35:31.263Z,9.95
2024-03-12T09:38:00.503Z,11.38
2024-03-12T09:40:29.496Z,9.63
2024-03-12T09:42:59.751Z,13.77
2024-03-12T09:45:27.767Z,59.58
2024-03-12T09:47:57.547Z,38.83
2024-03-12T09:50:26.651Z,16.35
2024-03-12T09:52:55.487Z,53.85
2024-03-12T09:55:26.348Z,25.10
2024-03-12T09:57:55.493Z,13.45
2024-03-12T10:00:25.952Z,12.00
2024-03-12T10:02:53.904Z,13.60
2024-03-12T10:05:24.015Z,14.55
2024-03-12T10:08:09.208Z,13.98
2024-03-12T10:10:43.817Z,18.83
2024-03-12T10:13:15.742Z,18.13
2024-03-12T10:15:51.980Z,15.48
2024-03-12T10:18:22.025Z,13.18
2024-03-12T10:20:51.810Z,13.82
2024-03-12T10:23:22.135Z,19.67
2024-03-12T10:25:51.436Z,18.88
2024-03-12T10:28:26.150Z,17.65
2024-03-12T10:30:54.516Z,13.32
2024-03-12T10:33:22.808Z,11.98
2024-03-12T10:35:51.815Z,11.65
2024-03-12T10:38:27.708Z,12.90
2024-03-12T10:40:58.255Z,13.52
2024-03-12T10:43:26.746Z,12.70
2024-03-12T10:45:55.366Z,11.18
2024-03-12T10:48:24.622Z,11.80
2024-03-12T10:50:55.084Z,11.90
2024-03-12T10:53:24.649Z,10.25
2024-03-12T10:55:52.655Z,12.13
2024-03-12T10:58:24.686Z,10.18
2024-03-12T11:00:52.927Z,9.73
2024-03-12T11:03:24.323Z,9.95
2024-03-12T11:05:55.923Z,10.75
2024-03-12T11:08:25.110Z,8.55
2024-03-12T11:10:54.859Z,7.75
2024-03-12T11:13:25.024Z,7.78
2024-03-12T11:15:53.436Z,7.03
2024-03-12T11:18:35.330Z,8.82
2024-03-12T11:21:05.155Z,11.40
2024-03-12T11:23:33.475Z,12.02
2024-03-12T11:26:06.513Z,9.02
2024-03-12T11:28:49.301Z,9.82
2024-03-12T11:31:19.509Z,9.88
2024-03-12T11:33:50.249Z,9.10
2024-03-12T11:36:30.618Z,10.77
2024-03-12T11:39:00.565Z,9.40
2024-03-12T11:42:16.044Z,8.18
2024-03-12T11:44:54.570Z,18.23
2024-03-12T11:47:35.673Z,9.52
2024-03-12T11:50:05.157Z,8.88
2024-03-12T11:52:34.817Z,8.35
2024-03-12T11:55:05.093Z,8.57
2024-03-12T11:57:33.684Z,9.10
2024-03-12T12:00:06.399Z,6.72
2024-03-12T12:02:43.536Z,8.00
2024-03-12T12:05:14.214Z,8.52
2024-03-12T12:07:42.357Z,8.23
2024-03-12T12:10:11.824Z,9.52
2024-03-12T12:12:39.830Z,8.27
2024-03-12T12:15:12.258Z,8.95
2024-03-12T12:17:40.250Z,9.48
2024-03-12T12:20:15.522Z,8.32
2024-03-12T12:22:48.366Z,9.07
2024-03-12T12:25:19.413Z,8.30
2024-03-12T12:27:48.098Z,6.97
2024-03-12T12:30:20.578Z,6.80
2024-03-12T12:32:50.365Z,7.43
2024-03-12T12:35:21.523Z,6.47
2024-03-12T12:37:51.397Z,6.78
2024-03-12T12:40:21.289Z,7.65
2024-03-12T12:42:52.305Z,6.03
2024-03-12T12:45:21.948Z,7.07
2024-03-12T12:47:51.159Z,6.80
2024-03-12T12:50:30.492Z,8.23
2024-03-12T12:53:00.248Z,9.27
2024-03-12T12:55:28.883Z,10.73
2024-03-12T12:58:02.055Z,15.48
2024-03-12T13:00:37.049Z,12.90
2024-03-12T13:03:18.401Z,11.48
2024-03-12T13:05:46.937Z,13.48
2024-03-12T13:08:22.020Z,16.58
2024-03-12T13:11:06.975Z,14.90
2024-03-12T13:13:36.238Z,14.35
2024-03-12T13:16:14.443Z,14.52
2024-03-12T13:18:44.900Z,13.57
2024-03-12T13:21:13.434Z,15.73
2024-03-12T13:23:41.422Z,12.45
2024-03-12T13:26:09.933Z,12.73
2024-03-12T13:28:37.871Z,13.82
2024-03-12T13:31:06.732Z,14.13
2024-03-12T13:33:36.206Z,13.68
2024-03-12T13:36:06.062Z,15.10
2024-03-12T13:38:35.693Z,25.48
2024-03-12T13:41:03.920Z,18.55
2024-03-12T13:43:32.005Z,16.95
2024-03-12T13:46:00.852Z,15.55
2024-03-12T13:48:29.854Z,13.80
2024-03-12T13:51:00.674Z,15.48
2024-03-12T13:53:29.593Z,13.73
2024-03-12T13:55:57.736Z,14.50
2024-03-12T13:58:26.976Z,16.60
2024-03-12T14:00:57.733Z,15.13
2024-03-12T14:03:28.052Z,16.55
2024-03-12T14:05:57.114Z,18.30
2024-03-12T14:08:27.185Z,19.63
2024-03-12T14:10:57.890Z,18.17
2024-03-12T14:13:27.789Z,17.73
2024-03-12T14:15:56.971Z,18.92
2024-03-12T14:18:27.243Z,19.15
2024-03-12T14:20:55.658Z,20.10
2024-03-12T14:23:23.937Z,18.88
2024-03-12T14:25:54.212Z,18.13
2024-03-12T14:28:22.213Z,18.63
2024-03-12T14:30:50.494Z,18.75
2024-03-12T14:33:18.612Z,19.67
2024-03-12T14:35:48.214Z,17.52
2024-03-12T14:38:16.164Z,16.55
2024-03-12T14:40:44.214Z,16.98
2024-03-12T14:43:15.111Z,18.52
2024-03-12T14:45:43.882Z,18.85
2024-03-12T14:48:12.534Z,18.25
2024-03-12T14:50:40.467Z,19.38
2024-03-12T14:53:09.493Z,17.05
2024-03-12T14:55:37.481Z,18.25
2024-03-12T14:58:08.679Z,16.65
2024-03-12T15:00:40.034Z,21.20
2024-03-12T15:03:08.293Z,19.02
2024-03-12T15:05:36.672Z,18.17
2024-03-12T15:08:05.959Z,22.08
2024-03-12T15:10:34.006Z,19.77
2024-03-12T15:13:02.031Z,19.38
2024-03-12T15:15:31.025Z,18.92
2024-03-12T15:18:01.504Z,21.60
2024-03-12T15:20:30.939Z,19.58
2024-03-12T15:23:00.154Z,17.52
2024-03-12T15:25:29.109Z,20.48
2024-03-12T15:27:57.411Z,21.55
2024-03-12T15:30:25.557Z,19.00
2024-03-12T15:32:53.680Z,17.10
2024-03-12T15:35:24.578Z,19.20
2024-03-12T15:37:54.092Z,21.00
2024-03-12T15:40:23.711Z,21.75
2024-03-12T15:42:51.791Z,21.30
2024-03-12T15:45:20.316Z,19.08
2024-03-12T15:47:49.041Z,21.42
2024-03-12T15:50:17.614Z,20.45
2024-03-12T15:52:47.504Z,20.40
2024-03-12T15:55:15.721Z,20.40
2024-03-12T15:57:45.834Z,21.63
2024-03-12T16:00:15.572Z,23.05
2024-03-12T16:02:43.885Z,18.83
2024-03-12T16:05:12.044Z,20.58
2024-03-12T16:07:41.006Z,23.77
2024-03-12T16:10:11.299Z,20.45
2024-03-12T16:12:43.003Z,20.15
2024-03-12T16:15:14.415Z,19.90
2024-03-12T16:17:43.271Z,20.58
2024-03-12T16:20:15.057Z,19.65
2024-03-12T16:22:44.272Z,21.55
2024-03-12T16:25:14.275Z,21.52
2024-03-12T16:27:44.477Z,20.95
2024-03-12T16:30:15.271Z,22.25
2024-03-12T16:32:45.707Z,20.77
2024-03-12T16:35:16.108Z,18.50
2024-03-12T16:37:44.881Z,27.25
2024-03-12T16:40:14.822Z,27.25
2024-03-12T16:42:44.365Z,23.92
2024-03-12T16:45:13.397Z,21.05
2024-03-12T16:47:42.971Z,18.63
2024-03-12T16:50:11.958Z,19.17
2024-03-12T16:52:40.513Z,20.73
2024-03-12T16:55:10.042Z,24.70
2024-03-12T16:57:40.152Z,18.25
2024-03-12T17:00:12.103Z,20.10
2024-03-12T17:02:44.012Z,22.73
2024-03-12T17:05:14.001Z,23.08
2024-03-12T17:07:42.821Z,20.17
2024-03-12T17:10:13.730Z,20.20
2024-03-12T17:12:43.679Z,22.70
2024-03-12T17:15:15.210Z,20.65
2024-03-12T17:17:44.906Z,24.02
2024-03-12T17:20:14.703Z,25.80
2024-03-12T17:22:43.168Z,23.45
2024-03-12T17:25:12.651Z,23.55
2024-03-12T17:27:42.397Z,23.05
2024-03-12T17:30:15.555Z,22.77
2024-03-12T17:32:46.719Z,24.70
2024-03-12T17:35:16.461Z,24.40
2024-03-12T17:37:45.988Z,25.20
2024-03-12T17:40:16.142Z,30.83
2024-03-12T17:42:45.238Z,32.13
2024-03-12T17:45:16.603Z,33.28
2024-03-12T17:47:48.998Z,34.63
2024-03-12T17:50:19.055Z,29.27
2024-03-12T17:52:51.201Z,33.33
2024-03-12T17:55:21.195Z,32.55
2024-03-12T17:57:50.184Z,30.77
2024-03-12T18:00:22.101Z,33.00
2024-03-12T18:02:51.124Z,32.28
2024-03-12T18:05:21.187Z,31.65
2024-03-12T18:07:52.918Z,37.90
2024-03-12T18:10:22.447Z,35.70
2024-03-12T18:12:51.087Z,36.47
2024-03-12T18:15:21.410Z,30.40
2024-03-12T18:17:49.575Z,30.17
2024-03-12T18:20:23.386Z,31.58
2024-03-12T18:22:51.339Z,32.15
2024-03-12T18:25:19.332Z,27.60
2024-03-12T18:27:51.178Z,35.08
2024-03-12T18:30:21.379Z,33.33
2024-03-12T18:32:49.673Z,33.55
2024-03-12T18:35:19.796Z,29.08
2024-03-12T18:37:47.932Z,32.15
2024-03-12T18:40:19.548Z,34.65
2024-03-12T18:42:48.842Z,30.50
2024-03-12T18:45:19.376Z,30.88
2024-03-12T18:47:51.058Z,33.38
2024-03-12T18:50:21.626Z,32.70
2024-03-12T18:52:50.138Z,30.77
2024-03-12T18:55:19.340Z,33.78
2024-03-12T18:57:48.184Z,35.63
2024-03-12T19:00:19.417Z,35.80
2024-03-12T19:02:52.902Z,37.13
2024-03-12T19:05:24.485Z,41.50
2024-03-12T19:07:54.958Z,35.92
2024-03-12T19:10:25.110Z,38.08
2024-03-12T19:12:53.754Z,36.40
2024-03-12T19:15:23.952Z,36.47
2024-03-12T19:17:53.894Z,37.78
2024-03-12T19:20:23.539Z,41.70
2024-03-12T19:22:54.417Z,39.25
2024-03-12T19:25:23.690Z,40.30
2024-03-12T19:27:52.245Z,39.90
2024-03-12T19:30:21.386Z,41.15
2024-03-12T19:32:51.370Z,40.40
2024-03-12T19:35:22.382Z,41.95
2024-03-12T19:37:50.844Z,47.88
2024-03-12T19:40:22.245Z,43.05
2024-03-12T19:42:51.150Z,48.47
2024-03-12T19:45:20.895Z,42.08
2024-03-12T19:47:50.280Z,43.60
2024-03-12T19:50:22.953Z,44.42
2024-03-12T19:52:51.561Z,41.88
2024-03-12T19:55:20.802Z,42.03
2024-03-12T19:57:51.397Z,41.35
2024-03-12T20:00:20.807Z,38.08
2024-03-12T20:02:49.313Z,39.33
2024-03-12T20:05:20.423Z,37.50
2024-03-12T20:07:50.203Z,36.85
2024-03-12T20:10:18.456Z,34.53
2024-03-12T20:12:46.683Z,34.97
2024-03-12T20:15:15.029Z,35.45
2024-03-12T20:17:43.352Z,38.42
2024-03-12T20:20:14.042Z,36.03
2024-03-12T20:22:42.273Z,33.33
2024-03-12T20:25:12.822Z,33.13
2024-03-12T20:27:42.488Z,27.38
2024-03-12T20:30:12.048Z,24.48
2024-03-12T20:32:41.812Z,33.63
2024-03-12T20:35:10.761Z,34.80
2024-03-12T20:37:39.778Z,34.67
2024-03-12T20:40:10.483Z,30.45
2024-03-12T20:42:40.390Z,27.35
2024-03-12T20:45:11.400Z,25.38
2024-03-12T20:47:39.898Z,24.02
2024-03-12T20:50:09.928Z,22.25
2024-03-12T20:52:39.322Z,21.98
2024-03-12T20:55:08.391Z,23.50
2024-03-12T20:57:36.790Z,20.65
2024-03-12T21:00:17.616Z,23.23
2024-03-12T21:02:46.799Z,23.05
2024-03-12T21:05:16.249Z,19.60
2024-03-12T21:07:44.859Z,24.33
2024-03-12T21:10:13.173Z,25.40
2024-03-12T21:12:43.189Z,24.90
2024-03-12T21:15:16.853Z,25.15
2024-03-12T21:17:45.529Z,24.58
2024-03-12T21:20:19.201Z,27.23
2024-03-12T21:22:47.319Z,25.13
2024-03-12T21:25:16.694Z,23.05
2024-03-12T21:27:44.709Z,24.35
2024-03-12T21:30:17.432Z,22.77
2024-03-12T21:32:45.536Z,23.48
2024-03-12T21:35:13.659Z,19.45
2024-03-12T21:37:41.647Z,21.30
2024-03-12T21:40:13.160Z,23.80
2024-03-12T21:42:43.433Z,22.50
2024-03-12T21:45:12.507Z,21.08
2024-03-12T21:47:43.759Z,19.05
2024-03-12T21:50:14.700Z,21.13
2024-03-12T21:52:42.836Z,18.38
2024-03-12T21:55:11.773Z,20.50
2024-03-12T21:57:40.942Z,19.42
2024-03-12T22:00:13.020Z,19.00
2024-03-12T22:02:42.599Z,19.23
2024-03-12T22:05:14.027Z,20.77
2024-03-12T22:07:42.074Z,20.60
2024-03-12T22:10:13.192Z,19.27
2024-03-12T22:12:42.462Z,20.38
2024-03-12T22:15:12.627Z,17.08
2024-03-12T22:17:44.444Z,18.63
2024-03-12T22:20:16.205Z,16.88
2024-03-12T22:22:44.699Z,17.00
2024-03-12T22:25:13.643Z,16.90
2024-03-12T22:27:43.356Z,17.42
2024-03-12T22:30:12.211Z,17.63
2024-03-12T22:32:43.392Z,15.55
2024-03-12T22:35:11.781Z,16.48
2024-03-12T22:37:43.308Z,16.75
2024-03-12T22:40:13.393Z,16.90
2024-03-12T22:42:42.225Z,16.20
2024-03-12T22:45:12.572Z,15.23
2024-03-12T22:47:42.830Z,14.02
2024-03-12T22:50:12.208Z,15.63
2024-03-12T22:52:41.815Z,14.57
2024-03-12T22:55:10.991Z,16.52
2024-03-12T22:57:39.992Z,14.88
